Flight Track Log - Related Links

Times and Time Zones

All times are in EDT time to prevent confusion due to time zone crossing. See the SWA1245 flight status page for this flight to view local times or setup timezone preferences in your user account.

Time Position Orientation Groundspeed Altitude Reporting Facility
EDT Latitude Longitude Course Direction KTS MPH feet Rate Location/Type
Sat 02:27:34 PM 33.5840 -117.9000 190° South 172 198 3,600  Level FlightAware ADS-B
Sat 02:28:06 PM 33.5550 -117.9150 203° Southwest 226 260 4,600 1,909 Climbing FlightAware ADS-B
Sat 02:28:18 PM 33.5440 -117.9230 211° Southwest 244 281 5,000 2,318 Climbing FlightAware ADS-B
Sat 02:28:50 PM 33.5100 -117.9500 214° Southwest 278 320 6,300 2,754 Climbing FlightAware ADS-B
Sat 02:29:19 PM 33.4800 -117.9730 213° Southwest 284 327 7,800 3,517 Climbing FlightAware ADS-B
Sat 02:29:48 PM 33.4470 -117.9980 212° Southwest 284 327 9,700 2,773 Climbing FlightAware ADS-B
Sat 02:34:50 PM 33.4850 -118.4580 276° West 427 491 23,100 2,608 Climbing FlightAware ADS-B
Sat 02:37:12 PM 33.7030 -118.7330 314° West 457 526 29,000 2,341 Climbing FlightAware ADS-B
Sat 02:37:52 PM 33.7630 -118.8090 314° West 468 539 30,200 1,624 Climbing FlightAware ADS-B
Sat 02:38:37 PM 33.8240 -118.8870 313° West 476 548 31,300 1,841 Climbing FlightAware ADS-B
Sat 02:39:20 PM 33.8960 -118.9740 315° West 474 545 32,900 2,278 Climbing FlightAware ADS-B
Sat 02:39:56 PM 33.9540 -119.0400 317° Northwest 467 537 34,300 2,250 Climbing FlightAware ADS-B
Sat 02:40:56 PM 34.0470 -119.1440 317° Northwest 456 525 36,500 1,925 Climbing FlightAware ADS-B
Sat 02:41:42 PM 34.1160 -119.2220 317° Northwest 452 520 37,700 1,605 Climbing FlightAware ADS-B
Sat 02:42:22 PM 34.1770 -119.2910 317° Northwest 448 516 38,800 1,081 Climbing FlightAware ADS-B
Sat 02:43:33 PM 34.2700 -119.3970 317° Northwest 442 509 39,700 643 Climbing FlightAware ADS-B
Sat 02:44:14 PM 34.3380 -119.4750 317° Northwest 442 509 40,000 53 Climbing FlightAware ADS-B
Sat 02:49:10 PM 34.7860 -119.9870 317° Northwest 451 519 40,000  Level FlightAware ADS-B
Sat 02:49:56 PM 34.8560 -120.0690 316° Northwest 451 519 40,000  Level FlightAware ADS-B
Sat 02:52:26 PM 35.0850 -120.3340 317° Northwest 453 521 40,000  Level FlightAware ADS-B
Sat 02:53:26 PM 35.1750 -120.4400 316° Northwest 454 522 40,000  Level FlightAware ADS-B
Sat 02:54:20 PM 35.2550 -120.5350 316° Northwest 456 525 40,000  Level FlightAware ADS-B
Sat 02:56:37 PM 35.4740 -120.7690 319° Northwest 458 527 40,000  Level FlightAware ADS-B
Sat 02:57:24 PM 35.5550 -120.8450 323° Northwest 460 529 40,000  Level FlightAware ADS-B
Sat 02:58:06 PM 35.6270 -120.9100 324° Northwest 459 528 40,000  Level FlightAware ADS-B
Sat 02:58:44 PM 35.6890 -120.9680 323° Northwest 459 528 40,000  Level FlightAware ADS-B
Sat 02:59:28 PM 35.7650 -121.0390 323° Northwest 456 525 40,000 -528 Level FlightAware ADS-B
Sat 03:00:49 PM 35.8990 -121.1630 323° Northwest 449 517 38,900 -1,606 Descending FlightAware ADS-B
Sat 03:01:50 PM 36.0020 -121.2590 323° Northwest 446 513 36,200 -2,820 Descending FlightAware ADS-B
Sat 03:02:29 PM 36.0650 -121.3190 322° Northwest 449 517 34,200 -2,923 Descending FlightAware ADS-B
Sat 03:03:08 PM 36.1300 -121.3790 323° Northwest 446 513 32,400 -2,483 Descending FlightAware ADS-B
Sat 03:03:56 PM 36.2090 -121.4540 323° Northwest 452 520 30,600 -2,318 Descending FlightAware ADS-B
Sat 03:04:36 PM 36.2740 -121.5160 322° Northwest 440 506 29,000 -2,348 Descending FlightAware ADS-B
Sat 03:05:28 PM 36.3570 -121.5930 323° Northwest 426 490 27,000 -2,280 Descending FlightAware ADS-B
Sat 03:06:16 PM 36.4340 -121.6660 323° Northwest 415 478 25,200 -2,200 Descending FlightAware ADS-B
Sat 03:06:58 PM 36.4960 -121.7260 322° Northwest 406 467 23,700 -2,175 Descending FlightAware ADS-B
Sat 03:07:36 PM 36.5520 -121.7790 323° Northwest 396 456 22,300 -2,049 Descending FlightAware ADS-B
Sat 03:08:20 PM 36.6130 -121.8370 323° Northwest 385 443 20,900 -1,884 Descending FlightAware ADS-B
Sat 03:09:02 PM 36.6730 -121.8950 322° Northwest 375 432 19,600 -2,000 Descending FlightAware ADS-B
Sat 03:09:38 PM 36.7230 -121.9420 323° Northwest 371 427 18,300 -2,057 Descending FlightAware ADS-B
Sat 03:10:47 PM 36.8280 -121.9860 341° North 363 418 16,000 -1,725 Descending FlightAware ADS-B
Sat 03:12:18 PM 36.9770 -122.0250 348° North 312 359 13,700 -1,353 Descending FlightAware ADS-B
Sat 03:13:00 PM 37.0310 -122.0390 348° North 284 327 13,000 -1,214 Descending FlightAware ADS-B
Sat 03:13:42 PM 37.0840 -122.0620 341° North 269 310 12,000 -1,214 Descending FlightAware ADS-B
Sat 03:14:24 PM 37.1130 -122.1120 306° West 257 296 11,300 -1,154 Descending FlightAware ADS-B
Sat 03:15:00 PM 37.1390 -122.1570 306° West 253 291 10,500 -1,343 Descending FlightAware ADS-B
Sat 03:15:31 PM 37.1600 -122.1920 307° West 249 287 9,800 -1,286 Descending FlightAware ADS-B
Sat 03:15:42 PM 37.1700 -122.2020 321° Northwest 247 284 9,600 -1,345 Descending FlightAware ADS-B
Sat 03:16:29 PM 37.2140 -122.2400 325° Northwest 241 277 8,500 -1,385 Descending FlightAware ADS-B
Sat 03:17:00 PM 37.2420 -122.2650 325° Northwest 239 275 7,800 -1,474 Descending FlightAware ADS-B
Sat 03:17:26 PM 37.2660 -122.2870 324° Northwest 242 278 7,100 -1,263 Descending FlightAware ADS-B
Sat 03:17:38 PM 37.2760 -122.2960 324° Northwest 242 278 7,000 -136 Descending FlightAware ADS-B
Sat 03:18:10 PM 37.3060 -122.3230 324° Northwest 241 277 7,000  Level FlightAware ADS-B
Sat 03:18:22 PM 37.3170 -122.3290 337° Northwest 240 276 7,000 -1,050 Level FlightAware ADS-B
Sat 03:18:50 PM 37.3450 -122.3130 24° Northeast 237 273 6,300 -1,227 Descending FlightAware ADS-B
Sat 03:19:06 PM 37.3490 -122.2940 75° East 237 273 6,100 -692 Descending FlightAware ADS-B
Sat 03:19:16 PM 37.3520 -122.2800 75° East 236 272 6,000 -158 Descending FlightAware ADS-B
Sat 03:19:44 PM 37.3600 -122.2420 75° East 237 273 6,000 -269 Level FlightAware ADS-B
Sat 03:20:23 PM 37.3770 -122.1980 64° Northeast 235 270 5,700 -1,041 Descending FlightAware ADS-B
Sat 03:21:22 PM 37.4160 -122.1290 55° Northeast 222 255 4,300 -1,268 Descending FlightAware ADS-B
Sat 03:21:34 PM 37.4270 -122.1210 30° Northeast 211 243 4,200 -346 Descending FlightAware ADS-B
Sat 03:22:14 PM 37.4610 -122.1010 25° Northeast 196 226 4,000 -200 Descending FlightAware ADS-B
Sat 03:22:34 PM 37.4770 -122.1070 343° North 190 219 4,000 -240 Level FlightAware ADS-B
Sat 03:23:04 PM 37.4980 -122.1260 324° Northwest 175 201 3,800 -643 Descending FlightAware ADS-B
Sat 03:23:30 PM 37.5140 -122.1390 327° Northwest 169 194 3,400 -947 Descending FlightAware ADS-B
Sat 03:23:42 PM 37.5210 -122.1480 314° West 165 190 3,200 -1,071 Descending FlightAware ADS-B
Sat 03:23:58 PM 37.5280 -122.1610 304° West 164 189 2,900 -955 Descending FlightAware ADS-B
Sat 03:24:26 PM 37.5380 -122.1840 299° West 165 190 2,500 -444 Descending FlightAware ADS-B
Sat 03:24:52 PM 37.5480 -122.2060 300° West 166 191 2,500 -516 Level FlightAware ADS-B
Sat 03:26:34 PM 37.5810 -122.2870 297° West 145 167 1,400 -696 Descending FlightAware ADS-B
Sat 03:26:44 PM 37.5850 -122.2950 302° West 140 161 1,200 -882 Descending FlightAware ADS-B
Sat 03:27:08 PM 37.5920 -122.3110 299° West 133 153 900 -818 Descending FlightAware ADS-B
Sat 03:27:28 PM 37.5980 -122.3250 298° West 133 153 600 -667 Descending FlightAware ADS-B
Sat 03:27:44 PM 37.6020 -122.3360 295° West 132 152 500 -571 Descending FlightAware ADS-B
Sat 03:28:10 PM 37.6100 -122.3540 299° West 128 147 200 -692 Descending FlightAware ADS-B
Sat 03:28:32 PM 37.6160 -122.3680 298° West 115 132 -545 Descending FlightAware ADS-B
Sat 03:29:06 PM 37.6190 -122.3770 293° West 19 22  Level FlightAware ADS-B
Sat 03:29:31 PM 37.6190 -122.3790 270° West 24 28  Level FlightAware ADS-B
Sat 03:31:25 PM 37.6120 -122.3820 199° South 17 20  Level FlightAware ADS-B
Sat 03:31:42 PM 37.6110 -122.3830 218° Southwest 26 30  Level FlightAware ADS-B
Sat 03:32:08 PM 37.6120 -122.3820 38° Northeast 23 26  Level FlightAware ADS-B
Sat 03:32:35 PM 37.6130 -122.3830 322° Northwest 10 12  Level FlightAware ADS-B
Sat 03:36:00 PM 37.6167 -122.3667 North  Level FlightAware Approximate

Login

Don't have an account? Register now (free) for customized features, flight alerts, and more!